createdAt,value
2023-01-13T00:01:46.143Z,4.10
2023-01-13T00:04:16.697Z,3.90
2023-01-13T00:06:44.571Z,4.07
2023-01-13T00:09:16.187Z,4.70
2023-01-13T00:11:46.682Z,4.10
2023-01-13T00:14:22.603Z,5.65
2023-01-13T00:16:52.864Z,4.53
2023-01-13T00:19:24.949Z,4.50
2023-01-13T00:21:53.605Z,5.18
2023-01-13T00:24:22.933Z,4.93
2023-01-13T00:26:58.276Z,5.45
2023-01-13T00:29:30.251Z,5.30
2023-01-13T00:32:01.381Z,5.57
2023-01-13T00:34:31.383Z,6.55
2023-01-13T00:36:59.061Z,6.05
2023-01-13T00:39:29.473Z,6.55
2023-01-13T00:42:16.483Z,5.88
2023-01-13T00:44:47.624Z,5.32
2023-01-13T00:47:26.237Z,6.10
2023-01-13T00:49:55.436Z,6.10
2023-01-13T00:52:25.381Z,5.05
2023-01-13T00:54:58.470Z,6.75
2023-01-13T00:57:32.644Z,6.35
2023-01-13T01:00:06.323Z,6.82
2023-01-13T01:02:53.844Z,6.78
2023-01-13T01:05:22.732Z,4.88
2023-01-13T01:08:00.776Z,5.50
2023-01-13T01:10:29.869Z,6.82
2023-01-13T01:13:04.793Z,6.80
2023-01-13T01:15:34.263Z,6.00
2023-01-13T01:18:05.930Z,7.10
2023-01-13T01:20:40.089Z,7.03
2023-01-13T01:23:11.722Z,6.70
2023-01-13T01:25:45.937Z,5.72
2023-01-13T01:28:14.177Z,6.05
2023-01-13T01:30:58.749Z,7.15
2023-01-13T01:33:27.599Z,7.43
2023-01-13T01:35:56.177Z,6.20
2023-01-13T01:38:31.011Z,6.80
2023-01-13T01:41:00.843Z,6.05
2023-01-13T01:44:05.294Z,6.80
2023-01-13T01:46:46.793Z,7.72
2023-01-13T01:49:45.012Z,5.78
2023-01-13T01:52:40.994Z,8.35
2023-01-13T01:55:41.667Z,6.00
2023-01-13T01:58:50.091Z,7.40
2023-01-13T02:01:21.270Z,6.65
2023-01-13T02:04:05.276Z,8.35
2023-01-13T02:06:34.740Z,6.88
2023-01-13T02:09:03.099Z,5.85
2023-01-13T02:12:00.005Z,5.32
2023-01-13T02:14:33.678Z,8.18
2023-01-13T02:17:49.141Z,7.63
2023-01-13T02:20:16.729Z,6.70
2023-01-13T02:23:57.956Z,7.50
2023-01-13T02:26:52.456Z,9.32
2023-01-13T02:30:28.969Z,8.77
2023-01-13T02:33:36.177Z,8.23
2023-01-13T02:36:47.622Z,7.20
2023-01-13T02:43:05.262Z,8.85
2023-01-13T02:46:01.288Z,8.80
2023-01-13T02:48:33.062Z,7.32
2023-01-13T02:51:10.899Z,9.15
2023-01-13T02:54:14.689Z,10.63
2023-01-13T02:56:59.638Z,7.85
2023-01-13T02:59:32.920Z,8.73
2023-01-13T03:02:03.717Z,9.55
2023-01-13T03:04:58.962Z,7.20
2023-01-13T03:08:18.404Z,8.60
2023-01-13T03:11:13.196Z,7.18
2023-01-13T03:14:20.742Z,6.65
2023-01-13T03:17:24.851Z,7.20
2023-01-13T03:20:41.528Z,8.23
2023-01-13T03:23:44.464Z,7.80
2023-01-13T03:26:57.132Z,7.10
2023-01-13T03:30:06.393Z,8.00
2023-01-13T03:32:45.607Z,6.65
2023-01-13T03:35:46.270Z,7.72
2023-01-13T03:38:43.227Z,8.25
2023-01-13T03:41:30.832Z,7.35
2023-01-13T03:44:22.934Z,6.15
2023-01-13T03:47:19.431Z,6.85
2023-01-13T03:50:19.589Z,4.60
2023-01-13T03:53:13.751Z,5.82
2023-01-13T03:55:57.313Z,5.35
2023-01-13T03:58:46.278Z,5.60
2023-01-13T04:02:06.036Z,5.15
2023-01-13T04:04:55.622Z,3.45
2023-01-13T04:08:34.230Z,3.45
2023-01-13T04:11:21.251Z,3.15
2023-01-13T04:13:52.917Z,3.13
2023-01-13T04:16:31.121Z,3.00
2023-01-13T04:19:01.389Z,2.45
2023-01-13T04:21:38.871Z,2.78
2023-01-13T04:24:07.924Z,3.78
2023-01-13T04:26:35.531Z,3.10
2023-01-13T04:29:07.283Z,2.60
2023-01-13T04:31:37.968Z,3.10
2023-01-13T04:34:17.326Z,2.38
2023-01-13T04:36:55.081Z,2.45
2023-01-13T04:39:28.754Z,2.17
2023-01-13T04:42:07.307Z,2.35
2023-01-13T04:47:07.924Z,2.72
2023-01-13T04:49:37.186Z,2.95
2023-01-13T04:52:08.663Z,2.65
2023-01-13T04:54:42.092Z,2.60
2023-01-13T04:57:11.933Z,3.80
2023-01-13T04:59:46.820Z,3.10
2023-01-13T05:02:20.097Z,3.47
2023-01-13T05:04:53.322Z,2.92
2023-01-13T05:07:31.504Z,4.25
2023-01-13T05:10:03.528Z,3.60
2023-01-13T05:12:51.969Z,4.82
2023-01-13T05:15:42.759Z,4.93
2023-01-13T05:18:14.648Z,5.28
2023-01-13T05:20:44.362Z,5.18
2023-01-13T05:23:32.924Z,4.50
2023-01-13T05:26:00.694Z,4.57
2023-01-13T05:28:34.339Z,6.00
2023-01-13T05:31:08.572Z,5.03
2023-01-13T05:36:26.257Z,5.60
2023-01-13T05:39:00.397Z,5.20
2023-01-13T05:41:53.204Z,6.43
2023-01-13T05:44:23.258Z,5.65
2023-01-13T05:47:07.168Z,4.70
2023-01-13T05:49:44.177Z,5.20
2023-01-13T05:52:14.194Z,5.18
2023-01-13T05:54:46.739Z,6.00
2023-01-13T05:57:23.305Z,5.20
2023-01-13T06:00:50.558Z,6.30
2023-01-13T06:03:24.791Z,5.40
2023-01-13T06:06:29.404Z,4.30
2023-01-13T06:09:16.353Z,4.82
2023-01-13T06:11:52.701Z,5.53
2023-01-13T06:14:22.195Z,4.30
2023-01-13T06:17:00.635Z,8.07
2023-01-13T06:19:32.129Z,4.78
2023-01-13T06:22:36.890Z,5.35
2023-01-13T06:25:51.320Z,5.18
2023-01-13T06:28:43.524Z,4.75
2023-01-13T06:31:11.726Z,5.40
2023-01-13T06:33:52.440Z,4.88
2023-01-13T06:36:38.130Z,4.95
2023-01-13T06:39:20.410Z,4.82
2023-01-13T06:42:14.952Z,4.95
2023-01-13T06:50:39.497Z,4.35
2023-01-13T06:53:11.653Z,5.53
2023-01-13T06:55:52.472Z,4.70
2023-01-13T06:58:21.146Z,6.05
2023-01-13T07:00:54.553Z,6.20
2023-01-13T07:03:33.920Z,6.13
2023-01-13T07:06:11.103Z,6.22
2023-01-13T07:08:43.605Z,5.28
2023-01-13T07:12:02.199Z,5.28
2023-01-13T07:14:53.272Z,4.70
2023-01-13T07:17:29.861Z,4.40
2023-01-13T07:20:00.769Z,5.13
2023-01-13T07:22:32.871Z,6.38
2023-01-13T07:25:09.468Z,5.95
2023-01-13T07:27:55.175Z,6.13
2023-01-13T07:30:31.779Z,5.38
2023-01-13T07:36:13.198Z,5.05
2023-01-13T07:42:12.111Z,5.75
2023-01-13T07:48:03.063Z,4.88
2023-01-13T07:50:49.794Z,7.53
2023-01-13T07:53:32.481Z,5.47
2023-01-13T07:56:39.804Z,5.10
2023-01-13T07:59:26.964Z,5.53
2023-01-13T08:02:00.260Z,6.15
2023-01-13T08:07:54.489Z,4.65
2023-01-13T08:10:34.944Z,6.07
2023-01-13T08:13:25.265Z,4.75
2023-01-13T08:16:22.151Z,4.68
2023-01-13T08:18:56.398Z,6.07
2023-01-13T08:21:37.256Z,6.20
2023-01-13T08:24:14.293Z,6.30
2023-01-13T08:26:55.034Z,6.47
2023-01-13T08:29:33.499Z,5.47
2023-01-13T08:32:06.613Z,4.85
2023-01-13T08:35:01.895Z,5.30
2023-01-13T08:37:40.531Z,5.70
2023-01-13T08:40:19.029Z,7.50
2023-01-13T08:43:11.683Z,6.32
2023-01-13T08:45:47.438Z,5.90
2023-01-13T08:48:18.198Z,7.28
2023-01-13T08:53:57.862Z,5.50
2023-01-13T08:56:35.450Z,6.60
2023-01-13T08:59:22.340Z,6.55
2023-01-13T09:02:27.393Z,6.43
2023-01-13T09:05:11.376Z,7.57
2023-01-13T09:07:40.064Z,7.45
2023-01-13T09:10:32.661Z,8.20
2023-01-13T09:13:19.893Z,5.50
2023-01-13T09:16:24.606Z,6.13
2023-01-13T09:19:04.370Z,5.75
2023-01-13T09:21:55.408Z,5.93
2023-01-13T09:24:47.540Z,7.18
2023-01-13T09:27:22.309Z,7.35
2023-01-13T09:33:24.380Z,9.10
2023-01-13T09:42:26.451Z,7.93
2023-01-13T09:45:23.488Z,7.20
2023-01-13T09:48:30.605Z,7.03
2023-01-13T09:51:30.992Z,6.40
2023-01-13T09:54:26.012Z,6.47
2023-01-13T09:56:58.868Z,7.43
2023-01-13T09:59:36.421Z,6.85
2023-01-13T10:02:58.853Z,6.55
2023-01-13T10:05:53.347Z,6.25
2023-01-13T10:08:43.151Z,8.30
2023-01-13T10:11:58.729Z,8.00
2023-01-13T10:14:55.018Z,7.60
2023-01-13T10:17:55.310Z,6.80
2023-01-13T10:21:35.831Z,7.03
2023-01-13T10:24:53.302Z,7.97
2023-01-13T10:27:41.089Z,8.53
2023-01-13T10:30:41.027Z,7.93
2023-01-13T10:33:47.694Z,8.38
2023-01-13T10:36:31.525Z,7.93
2023-01-13T10:39:23.675Z,6.70
2023-01-13T10:42:37.067Z,6.90
2023-01-13T10:45:26.651Z,8.52
2023-01-13T10:48:15.981Z,8.77
2023-01-13T10:50:49.784Z,9.00
2023-01-13T10:53:54.002Z,6.95
2023-01-13T10:56:41.028Z,7.28
2023-01-13T10:59:45.651Z,8.18
2023-01-13T11:02:44.941Z,8.27
2023-01-13T11:05:25.354Z,8.23
2023-01-13T11:07:59.348Z,7.28
2023-01-13T11:13:57.967Z,8.00
2023-01-13T11:16:38.157Z,9.27
2023-01-13T11:19:19.114Z,8.35
2023-01-13T11:22:49.079Z,7.43
2023-01-13T11:25:47.282Z,7.70
2023-01-13T11:28:43.144Z,7.30
2023-01-13T11:31:33.727Z,8.18
2023-01-13T11:34:46.700Z,7.20
2023-01-13T11:38:02.945Z,9.20
2023-01-13T11:41:25.257Z,8.00
2023-01-13T11:44:35.762Z,6.97
2023-01-13T11:50:40.837Z,7.90
2023-01-13T11:53:56.708Z,7.82
2023-01-13T12:01:30.725Z,5.88
2023-01-13T12:04:25.493Z,6.35
2023-01-13T12:08:11.449Z,6.43
2023-01-13T12:11:34.307Z,6.88
2023-01-13T12:14:58.069Z,7.65
2023-01-13T12:24:51.472Z,6.90
2023-01-13T12:28:49.345Z,6.35
2023-01-13T12:31:27.874Z,5.13
2023-01-13T12:38:09.634Z,5.72
2023-01-13T12:41:13.364Z,7.25
2023-01-13T12:44:19.123Z,5.45
2023-01-13T12:47:02.437Z,7.65
2023-01-13T12:49:37.746Z,6.30
2023-01-13T12:52:25.417Z,5.88
2023-01-13T12:56:05.775Z,6.93
2023-01-13T13:01:58.457Z,5.53
2023-01-13T13:22:29.888Z,6.63
2023-01-13T13:25:07.763Z,7.60
2023-01-13T13:28:08.912Z,5.85
2023-01-13T13:30:51.751Z,4.50
2023-01-13T13:33:56.722Z,5.95
2023-01-13T13:37:06.116Z,5.07
2023-01-13T13:39:58.826Z,4.97
2023-01-13T13:43:00.902Z,5.10
2023-01-13T13:45:53.805Z,6.45
2023-01-13T13:48:38.925Z,5.72
2023-01-13T13:51:45.359Z,7.00
2023-01-13T13:54:21.986Z,5.70
2023-01-13T14:00:18.594Z,5.72
2023-01-13T14:03:32.110Z,4.97
2023-01-13T14:06:38.119Z,5.03
2023-01-13T14:12:43.101Z,5.53
2023-01-13T14:15:56.187Z,6.95
2023-01-13T14:18:48.471Z,4.87
2023-01-13T14:21:41.257Z,5.40
2023-01-13T14:24:46.945Z,5.72
2023-01-13T14:27:35.456Z,6.05
2023-01-13T14:30:23.173Z,5.75
2023-01-13T14:33:00.254Z,4.68
2023-01-13T14:35:36.928Z,5.10
2023-01-13T14:38:10.433Z,4.88
2023-01-13T14:41:20.776Z,5.45
2023-01-13T14:43:55.942Z,5.43
2023-01-13T14:46:50.016Z,4.75
2023-01-13T14:49:47.351Z,5.90
2023-01-13T14:53:09.716Z,4.80
2023-01-13T14:58:53.520Z,5.80
2023-01-13T15:01:43.672Z,4.22
2023-01-13T15:08:13.888Z,5.53
2023-01-13T15:11:14.081Z,6.70
2023-01-13T15:14:03.908Z,4.18
2023-01-13T15:16:34.704Z,5.30
2023-01-13T15:19:19.208Z,5.50
2023-01-13T15:25:02.467Z,6.45
2023-01-13T15:30:31.632Z,5.70
2023-01-13T15:35:54.116Z,5.05
2023-01-13T15:38:28.384Z,7.03
2023-01-13T15:41:14.309Z,5.28
2023-01-13T15:44:06.811Z,6.43
2023-01-13T15:49:46.801Z,6.78
2023-01-13T15:52:41.660Z,5.93
2023-01-13T15:55:22.752Z,6.35
2023-01-13T15:57:51.685Z,6.32
2023-01-13T16:00:28.172Z,5.10
2023-01-13T16:03:04.962Z,6.15
2023-01-13T16:08:35.290Z,5.50
2023-01-13T16:11:05.578Z,5.68
2023-01-13T16:16:28.059Z,6.72
2023-01-13T16:19:06.926Z,6.00
2023-01-13T16:27:58.868Z,6.43
2023-01-13T16:31:00.257Z,5.45
2023-01-13T16:39:23.707Z,4.90
2023-01-13T16:41:53.673Z,6.03
2023-01-13T16:44:31.829Z,5.57
2023-01-13T16:47:15.103Z,6.93
2023-01-13T16:49:47.827Z,5.63
2023-01-13T16:52:39.214Z,5.70
2023-01-13T16:55:45.535Z,6.63
2023-01-13T16:58:35.318Z,5.65
2023-01-13T17:01:27.490Z,5.97
2023-01-13T17:04:34.573Z,4.82
2023-01-13T17:07:10.526Z,5.60
2023-01-13T17:09:46.941Z,5.97
2023-01-13T17:12:14.911Z,5.22
2023-01-13T17:14:45.015Z,6.03
2023-01-13T17:17:28.408Z,5.68
2023-01-13T17:20:00.822Z,5.82
2023-01-13T17:22:43.926Z,6.53
2023-01-13T17:25:20.920Z,5.70
2023-01-13T17:28:08.741Z,5.32
2023-01-13T17:30:36.915Z,6.22
2023-01-13T17:33:10.083Z,5.40
2023-01-13T17:36:00.078Z,6.20
2023-01-13T17:38:42.593Z,5.05
2023-01-13T17:41:21.665Z,6.25
2023-01-13T17:43:59.577Z,6.32
2023-01-13T17:46:57.824Z,5.72
2023-01-13T17:49:43.504Z,5.72
2023-01-13T17:52:17.600Z,6.15
2023-01-13T17:54:48.975Z,5.85
2023-01-13T17:57:22.720Z,6.20
2023-01-13T17:59:54.676Z,6.05
2023-01-13T18:02:26.641Z,4.78
2023-01-13T18:04:58.415Z,6.65
2023-01-13T18:07:29.755Z,4.88
2023-01-13T18:10:12.236Z,6.57
2023-01-13T18:12:49.957Z,7.07
2023-01-13T18:15:31.687Z,6.05
2023-01-13T18:18:24.264Z,5.07
2023-01-13T18:21:14.950Z,5.13
2023-01-13T18:24:12.085Z,5.78
2023-01-13T18:26:59.180Z,4.35
2023-01-13T18:32:35.468Z,4.47
2023-01-13T18:35:15.835Z,3.85
2023-01-13T18:37:44.928Z,4.82
2023-01-13T18:43:22.743Z,4.35
2023-01-13T18:45:51.933Z,4.22
2023-01-13T18:48:36.794Z,5.43
2023-01-13T18:51:08.187Z,5.72
2023-01-13T18:53:42.100Z,4.57
2023-01-13T18:56:33.861Z,5.47
2023-01-13T18:59:15.287Z,4.70
2023-01-13T19:01:55.068Z,4.25
2023-01-13T19:04:44.615Z,5.93
2023-01-13T19:07:30.366Z,4.78
2023-01-13T19:10:13.098Z,5.25
2023-01-13T19:12:45.678Z,4.97
2023-01-13T19:15:17.058Z,5.55
2023-01-13T19:17:55.729Z,5.15
2023-01-13T19:20:36.458Z,5.00
2023-01-13T19:23:29.275Z,4.68
2023-01-13T19:26:12.247Z,4.65
2023-01-13T19:28:53.820Z,5.05
2023-01-13T19:31:32.345Z,4.63
2023-01-13T19:37:15.395Z,4.43
2023-01-13T19:39:44.487Z,4.93
2023-01-13T19:42:37.705Z,6.57
2023-01-13T19:45:38.061Z,3.80
2023-01-13T19:48:27.858Z,4.88
2023-01-13T19:51:09.709Z,6.93
2023-01-13T19:56:51.536Z,4.65
2023-01-13T20:09:07.759Z,5.75
2023-01-13T20:11:46.262Z,7.18
2023-01-13T20:14:27.036Z,5.38
2023-01-13T20:16:56.975Z,5.57
2023-01-13T20:19:28.004Z,5.15
2023-01-13T20:22:05.117Z,5.00
2023-01-13T20:24:35.574Z,4.75
2023-01-13T20:27:10.415Z,5.72
2023-01-13T20:30:11.556Z,7.53
2023-01-13T20:32:58.217Z,6.70
2023-01-13T20:35:38.232Z,5.32
2023-01-13T20:38:28.102Z,6.55
2023-01-13T20:41:30.639Z,5.47
2023-01-13T20:44:02.592Z,5.90
2023-01-13T20:46:37.494Z,6.93
2023-01-13T20:49:08.919Z,5.95
2023-01-13T20:51:50.648Z,5.63
2023-01-13T20:54:27.419Z,5.93
2023-01-13T20:57:01.449Z,6.28
2023-01-13T20:59:33.134Z,6.22
2023-01-13T21:02:14.837Z,4.60
2023-01-13T21:04:54.102Z,4.80
2023-01-13T21:07:26.724Z,6.88
2023-01-13T21:10:03.537Z,7.13
2023-01-13T21:12:51.855Z,5.97
2023-01-13T21:15:30.704Z,7.05
2023-01-13T21:18:27.198Z,6.35
2023-01-13T21:21:12.317Z,5.43
2023-01-13T21:24:05.151Z,5.40
2023-01-13T21:26:35.418Z,6.22
2023-01-13T21:29:11.781Z,5.43
2023-01-13T21:34:11.996Z,4.80
2023-01-13T21:36:50.683Z,4.85
2023-01-13T21:42:19.601Z,6.05
2023-01-13T21:45:13.654Z,4.80
2023-01-13T21:48:03.252Z,6.22
2023-01-13T21:50:39.424Z,5.47
2023-01-13T21:53:09.678Z,3.90
2023-01-13T21:55:38.359Z,6.03
2023-01-13T21:58:15.860Z,6.13
2023-01-13T22:00:46.009Z,6.68
2023-01-13T22:03:27.167Z,6.18
2023-01-13T22:06:01.278Z,5.82
2023-01-13T22:08:30.509Z,5.60
2023-01-13T22:10:58.506Z,5.70
2023-01-13T22:13:47.927Z,4.60
2023-01-13T22:16:25.699Z,6.20
2023-01-13T22:19:04.571Z,6.43
2023-01-13T22:21:54.660Z,6.50
2023-01-13T22:24:27.591Z,5.68
2023-01-13T22:26:55.253Z,5.15
2023-01-13T22:29:25.631Z,5.47
2023-01-13T22:31:55.693Z,5.00
2023-01-13T22:34:26.796Z,5.45
2023-01-13T22:37:00.323Z,6.20
2023-01-13T22:39:31.469Z,6.15
2023-01-13T22:42:03.340Z,5.85
2023-01-13T22:44:35.874Z,5.90
2023-01-13T22:47:10.155Z,5.18
2023-01-13T22:49:42.032Z,4.13
2023-01-13T22:52:19.179Z,6.65
2023-01-13T22:54:55.065Z,6.22
2023-01-13T22:57:23.979Z,6.13
2023-01-13T22:59:51.816Z,5.53
2023-01-13T23:02:28.026Z,7.05
2023-01-13T23:05:00.774Z,7.55
2023-01-13T23:08:05.728Z,5.78
2023-01-13T23:10:35.799Z,5.95
2023-01-13T23:13:12.028Z,6.00
2023-01-13T23:15:41.865Z,4.57
2023-01-13T23:18:14.802Z,6.45
2023-01-13T23:20:44.826Z,6.35
2023-01-13T23:29:16.551Z,5.53
2023-01-13T23:31:45.887Z,6.28
2023-01-13T23:34:19.212Z,5.65
2023-01-13T23:36:54.829Z,5.47
2023-01-13T23:39:28.317Z,6.22
2023-01-13T23:42:01.678Z,5.70
2023-01-13T23:44:31.065Z,4.80
2023-01-13T23:46:58.819Z,6.40
2023-01-13T23:49:30.399Z,5.55
2023-01-13T23:52:19.453Z,7.43
2023-01-13T23:54:57.601Z,7.30
2023-01-13T23:57:28.024Z,6.35
2023-01-13T23:59:57.102Z,4.85
